Time;durP1;ratioP1;P1;durP2;ratioP2;P2;SDS_P1;SDS_P2;PMS_P1;PMS_P2;Temp;Humidity;BMP_temperature;BMP_pressure;BME280_temperature;BME280_humidity;BME280_pressure;Samples;Min_cycle;Max_cycle;Signal;HPM_P1;HPM_P2
2021/10/11 00:02:15;;;;;;;3.17;2.13;;;;;;;4.22;63.62;99844.09;5112134;27;42234;-76
2021/10/11 00:04:42;;;;;;;2.80;1.80;;;;;;;4.23;63.96;99844.06;5111383;27;42799;-76
2021/10/11 00:07:10;;;;;;;2.73;2.20;;;;;;;4.21;63.96;99845.00;5112297;27;42500;-77
2021/10/11 00:09:39;;;;;;;2.83;2.50;;;;;;;4.20;63.56;99848.53;5112627;27;40705;-76
2021/10/11 00:12:07;;;;;;;2.07;1.87;;;;;;;4.12;63.51;99829.47;5112206;27;42125;-76
2021/10/11 00:14:34;;;;;;;2.77;1.83;;;;;;;4.08;63.00;99831.28;5111837;27;42659;-76
2021/10/11 00:17:02;;;;;;;3.37;1.97;;;;;;;4.14;62.95;99840.78;5112912;27;42146;-76
2021/10/11 00:19:33;;;;;;;3.63;2.37;;;;;;;4.10;62.84;99844.34;5111451;27;38917;-76
2021/10/11 00:22:00;;;;;;;6.00;2.23;;;;;;;4.09;63.06;99837.38;5111871;27;40669;-76
2021/10/11 00:24:28;;;;;;;4.60;2.63;;;;;;;4.06;63.86;99843.56;5111445;27;42763;-76
2021/10/11 00:26:57;;;;;;;3.03;2.30;;;;;;;4.05;64.08;99836.59;5130255;27;42207;-76
2021/10/11 00:29:25;;;;;;;3.93;2.63;;;;;;;4.04;63.51;99836.63;5111508;27;40181;-76
2021/10/11 00:31:52;;;;;;;2.43;1.57;;;;;;;3.98;63.49;99838.47;5111070;27;40804;-76
2021/10/11 00:34:20;;;;;;;4.47;2.53;;;;;;;4.00;63.21;99843.69;5111168;27;41720;-76
2021/10/11 00:36:47;;;;;;;3.80;2.87;;;;;;;3.98;63.07;99846.31;5111910;27;41205;-76
2021/10/11 00:39:15;;;;;;;2.30;1.97;;;;;;;3.86;62.94;99836.09;5111228;27;38731;-76
2021/10/11 00:41:42;;;;;;;2.27;1.60;;;;;;;3.91;62.76;99849.97;5095602;27;41238;-76
2021/10/11 00:44:11;;;;;;;4.07;1.63;;;;;;;3.87;63.26;99848.31;5129378;27;43595;-76
2021/10/11 00:46:39;;;;;;;3.30;2.63;;;;;;;3.86;63.33;99850.94;5129719;27;42204;-76
2021/10/11 00:49:06;;;;;;;2.73;2.53;;;;;;;3.83;64.09;99851.88;5129092;27;40278;-78
2021/10/11 00:51:34;;;;;;;2.87;2.13;;;;;;;3.79;63.59;99855.47;5095116;27;40833;-76
2021/10/11 00:54:02;;;;;;;3.70;1.90;;;;;;;3.77;63.45;99852.00;5111921;27;43678;-77
2021/10/11 00:56:29;;;;;;;1.83;1.67;;;;;;;3.61;63.39;99842.69;5111424;27;42302;-76
2021/10/11 00:58:57;;;;;;;3.27;1.87;;;;;;;3.75;63.35;99866.88;5129317;27;39797;-76
2021/10/11 01:01:26;;;;;;;2.40;2.07;;;;;;;3.73;63.69;99870.41;5111374;27;40690;-76
2021/10/11 01:03:53;;;;;;;1.50;1.40;;;;;;;3.70;63.88;99866.13;5111994;27;41872;-76
2021/10/11 01:06:21;;;;;;;2.00;1.80;;;;;;;3.67;63.64;99865.31;5128135;27;41306;-76
2021/10/11 01:08:49;;;;;;;4.60;2.70;;;;;;;3.57;63.55;99843.66;5128289;27;40125;-76
2021/10/11 01:11:17;;;;;;;2.90;1.77;;;;;;;3.62;63.53;99857.53;5111970;27;40406;-76
2021/10/11 01:13:44;;;;;;;1.60;1.50;;;;;;;3.48;63.38;99836.81;5111258;27;43130;-76
2021/10/11 01:16:12;;;;;;;2.93;2.03;;;;;;;3.57;63.27;99859.38;5128660;27;42181;-76
2021/10/11 01:18:40;;;;;;;4.50;2.83;;;;;;;3.54;63.36;99859.44;5111318;27;38770;-76
2021/10/11 01:21:09;;;;;;;2.87;1.60;;;;;;;3.39;63.41;99836.13;5128851;27;41601;-76
2021/10/11 01:23:37;;;;;;;3.67;2.03;;;;;;;3.49;63.53;99856.00;5128468;27;42327;-76
2021/10/11 01:26:04;;;;;;;2.30;1.63;;;;;;;3.45;63.24;99859.59;5111659;27;41758;-76
2021/10/11 01:28:32;;;;;;;3.90;2.07;;;;;;;3.43;63.21;99861.38;5128727;27;39336;-76
2021/10/11 01:30:59;;;;;;;2.87;2.20;;;;;;;3.33;63.33;99850.19;5128325;27;41654;-76
2021/10/11 01:33:27;;;;;;;2.60;1.83;;;;;;;3.35;63.10;99860.63;5128572;27;41980;-76
2021/10/11 01:35:54;;;;;;;2.07;1.80;;;;;;;3.32;63.24;99852.84;5127773;27;42259;-76
2021/10/11 01:38:23;;;;;;;3.83;2.57;;;;;;;3.24;64.20;99839.88;5131905;27;40047;-76
2021/10/11 01:40:51;;;;;;;2.47;2.10;;;;;;;3.25;65.13;99832.00;5114201;27;41621;-76
2021/10/11 01:43:18;;;;;;;4.53;3.40;;;;;;;3.25;64.73;99836.34;5114119;27;41826;-76
2021/10/11 01:45:50;;;;;;;3.10;2.20;;;;;;;3.23;64.58;99828.53;5131610;27;43218;-76
2021/10/11 01:48:18;;;;;;;1.77;1.53;;;;;;;3.11;64.11;99814.78;5114745;27;39712;-76
2021/10/11 01:50:45;;;;;;;2.27;1.83;;;;;;;3.20;64.18;99831.22;5113996;27;40563;-76
2021/10/11 01:53:13;;;;;;;2.70;2.37;;;;;;;3.19;64.22;99820.78;5113450;27;42442;-76
2021/10/11 01:55:42;;;;;;;4.17;2.07;;;;;;;3.16;63.90;99813.84;5132400;27;43212;-76
2021/10/11 01:58:09;;;;;;;2.23;1.87;;;;;;;3.17;64.84;99802.47;5097169;27;39043;-76
2021/10/11 02:00:37;;;;;;;2.20;1.77;;;;;;;3.13;64.92;99798.19;5097744;27;40863;-76
2021/10/11 02:03:07;;;;;;;4.80;3.13;;;;;;;3.16;64.65;99798.13;5113906;27;41901;-76
2021/10/11 02:05:34;;;;;;;2.13;2.00;;;;;;;3.15;64.47;99792.91;5131233;27;42392;-76
2021/10/11 02:08:02;;;;;;;3.50;3.17;;;;;;;3.16;64.86;99790.28;5097769;27;39665;-76
2021/10/11 02:10:30;;;;;;;4.47;2.47;;;;;;;3.18;66.69;99772.81;5114027;27;42878;-76
2021/10/11 02:12:59;;;;;;;3.23;2.17;;;;;;;3.05;66.57;99766.06;5132491;27;42663;-76
2021/10/11 02:15:27;;;;;;;6.30;3.20;;;;;;;3.17;66.08;99781.53;5113164;27;41281;-76
2021/10/11 02:17:56;;;;;;;3.83;2.23;;;;;;;3.19;65.79;99799.84;5114268;27;38832;-76
2021/10/11 02:20:24;;;;;;;4.27;2.40;;;;;;;3.18;65.61;99796.34;5113933;27;42017;-76
2021/10/11 02:22:52;;;;;;;2.33;2.13;;;;;;;3.08;65.32;99780.84;5114244;27;42909;-76
2021/10/11 02:25:20;;;;;;;2.60;2.23;;;;;;;3.04;65.30;99772.19;5113341;27;42525;-76
2021/10/11 02:27:50;;;;;;;1.70;1.60;;;;;;;3.12;65.08;99804.28;5113141;27;39000;-76
2021/10/11 02:30:19;;;;;;;3.50;1.87;;;;;;;3.10;65.05;99805.22;5126122;27;41172;-76
2021/10/11 02:32:47;;;;;;;5.97;2.60;;;;;;;3.00;65.59;99785.31;5132491;27;42954;-76
2021/10/11 02:35:16;;;;;;;2.47;1.90;;;;;;;3.02;65.35;99797.50;5113233;27;42366;-76
2021/10/11 02:37:44;;;;;;;1.63;1.53;;;;;;;2.98;65.10;99801.06;5113796;27;40934;-76
2021/10/11 02:40:12;;;;;;;4.10;2.57;;;;;;;2.94;65.13;99788.06;5112678;27;41667;-76
2021/10/11 02:42:39;;;;;;;4.00;1.97;;;;;;;2.91;65.17;99791.59;5131936;27;43848;-76
2021/10/11 02:45:07;;;;;;;2.37;2.10;;;;;;;2.78;65.38;99771.75;5113202;27;42418;-76
2021/10/11 02:47:37;;;;;;;4.77;2.37;;;;;;;2.80;67.20;99759.50;5113624;27;40617;-76
2021/10/11 02:50:05;;;;;;;2.87;2.63;;;;;;;2.85;67.34;99769.00;5112984;27;40630;-76
2021/10/11 02:52:37;;;;;;;5.10;2.60;;;;;;;2.82;67.46;99749.91;5112561;27;42865;-76
2021/10/11 02:55:06;;;;;;;3.07;2.63;;;;;;;2.88;69.10;99728.84;5113292;27;41889;-76
2021/10/11 07:21:16;;;;;;;5.03;3.00;;;;;;;4.77;82.52;99821.91;5159684;27;1373155;-77
2021/10/11 07:23:43;;;;;;;8.33;3.90;;;;;;;5.40;79.92;99808.94;5166346;27;40004;-77
2021/10/11 07:26:11;;;;;;;4.43;3.10;;;;;;;6.49;76.53;99826.00;5179549;27;41567;-75
2021/10/11 07:28:38;;;;;;;5.80;3.63;;;;;;;7.29;73.06;99846.25;5165180;27;43778;-75
2021/10/11 07:31:06;;;;;;;4.70;3.33;;;;;;;7.76;71.25;99862.22;5143689;27;41545;-76
2021/10/11 07:33:33;;;;;;;6.20;3.40;;;;;;;8.11;69.34;99856.53;5168769;27;38643;-75
2021/10/11 07:36:01;;;;;;;6.77;3.90;;;;;;;8.42;68.06;99858.06;5176241;27;42654;-75
2021/10/11 07:38:30;;;;;;;4.43;3.83;;;;;;;8.69;66.94;99878.13;5189551;27;43489;-74
2021/10/11 07:40:58;;;;;;;4.50;3.67;;;;;;;9.00;66.12;99877.81;5205752;27;42889;-74
2021/10/11 07:43:26;;;;;;;7.77;3.50;;;;;;;9.32;64.65;99868.56;5168929;27;38482;-74
2021/10/11 07:45:53;;;;;;;5.93;4.00;;;;;;;9.66;63.95;99863.59;5188064;27;43319;-74
2021/10/11 07:48:21;;;;;;;4.73;3.27;;;;;;;9.99;62.89;99857.78;5169011;27;42715;-75
2021/10/11 07:50:49;;;;;;;4.50;3.73;;;;;;;10.41;61.41;99863.81;5151851;27;42866;-78
2021/10/11 07:53:18;;;;;;;4.97;3.37;;;;;;;11.11;59.90;99864.94;5168939;27;39930;-76
2021/10/11 07:55:47;;;;;;;4.40;3.37;;;;;;;11.63;57.87;99868.50;5161951;27;40787;-78
2021/10/11 07:58:15;;;;;;;4.13;3.17;;;;;;;11.91;57.31;99867.13;5190012;27;41874;-76
2021/10/11 08:00:43;;;;;;;5.73;4.03;;;;;;;12.32;56.04;99876.44;5208865;27;42378;-75
2021/10/11 08:03:10;;;;;;;5.43;3.77;;;;;;;12.61;55.27;99889.97;5185754;27;39859;-75
2021/10/11 08:05:38;;;;;;;6.13;4.20;;;;;;;13.27;54.07;99890.69;5151466;27;41854;-76
2021/10/11 08:08:06;;;;;;;5.87;3.43;;;;;;;14.09;51.73;99903.63;5167861;27;43626;-77
2021/10/11 08:10:35;;;;;;;6.33;3.93;;;;;;;15.05;49.61;99918.03;5169642;27;42238;-75
2021/10/11 08:13:04;;;;;;;7.77;4.33;;;;;;;15.40;47.42;99913.06;5169051;27;40134;-75
2021/10/11 08:15:31;;;;;;;6.17;3.47;;;;;;;15.84;47.55;99919.97;5187030;27;41479;-77
2021/10/11 08:17:59;;;;;;;7.00;3.97;;;;;;;15.72;46.82;99912.78;5152201;27;42935;-78
2021/10/11 08:20:27;;;;;;;5.17;3.93;;;;;;;16.09;46.14;99905.81;5152012;27;42192;-75
2021/10/11 08:22:54;;;;;;;5.70;5.07;;;;;;;17.02;43.37;99853.78;5168898;27;40583;-74
2021/10/11 08:25:23;;;;;;;5.03;4.10;;;;;;;18.43;41.36;99925.22;5168969;27;40681;-74
2021/10/11 08:27:51;;;;;;;4.30;3.90;;;;;;;19.19;39.98;99916.47;5150578;27;41865;-77
2021/10/11 08:30:20;;;;;;;5.17;4.00;;;;;;;19.53;38.41;99926.22;5168508;27;42270;-77
2021/10/11 08:32:48;;;;;;;11.63;4.53;;;;;;;20.11;37.86;99918.66;5172924;27;40935;-76
2021/10/11 08:35:15;;;;;;;3.73;3.43;;;;;;;20.39;37.11;99936.03;5171828;27;41834;-76
2021/10/11 08:37:43;;;;;;;4.70;3.80;;;;;;;20.50;36.72;99937.78;5137955;27;42457;-74
2021/10/11 08:40:12;;;;;;;6.07;3.87;;;;;;;21.05;36.28;99937.31;5173128;27;42338;-76
2021/10/11 08:42:41;;;;;;;4.40;3.67;;;;;;;20.92;35.85;99934.00;5137847;27;38738;-75
2021/10/11 08:45:10;;;;;;;5.47;3.97;;;;;;;20.11;37.22;99925.88;5154015;27;41755;-75
2021/10/11 08:47:39;;;;;;;4.47;3.80;;;;;;;19.51;38.26;99916.59;5137432;27;41939;-75
2021/10/11 08:50:11;;;;;;;4.57;3.33;;;;;;;19.41;38.62;99911.06;5154648;27;41275;-76
2021/10/11 08:52:39;;;;;;;5.13;4.17;;;;;;;19.38;38.65;99906.81;5172712;27;40148;-78
2021/10/11 08:55:08;;;;;;;4.50;3.67;;;;;;;19.60;38.64;99899.69;5147945;27;41254;-77
2021/10/11 08:57:36;;;;;;;6.83;4.43;;;;;;;19.96;37.45;99912.72;5157270;27;41846;-75
2021/10/11 09:00:10;;;;;;;5.53;4.20;;;;;;;19.71;37.98;99919.31;5194352;27;42956;-78
2021/10/11 09:02:51;;;;;;;7.13;4.50;;;;;;;19.33;38.69;99897.41;5156329;27;38938;-76
2021/10/11 09:05:23;;;;;;;5.67;4.53;;;;;;;19.14;39.27;99892.69;5154604;27;41876;-75
2021/10/11 09:07:58;;;;;;;5.73;4.63;;;;;;;19.06;39.53;99883.53;5153589;27;42822;-76
2021/10/11 09:10:26;;;;;;;8.37;4.90;;;;;;;18.92;39.25;99877.47;5173125;27;42161;-77
2021/10/11 09:12:54;;;;;;;5.30;4.17;;;;;;;18.80;39.67;99881.13;5131783;27;40123;-77
2021/10/11 09:15:25;;;;;;;6.23;4.63;;;;;;;18.60;40.08;99871.16;5152590;27;41833;-78
2021/10/11 09:17:59;;;;;;;5.87;3.83;;;;;;;18.45;40.71;99873.16;5116339;27;43420;-76
2021/10/11 09:20:29;;;;;;;6.63;5.00;;;;;;;18.27;41.03;99856.72;5115574;27;41776;-76
2021/10/11 09:23:00;;;;;;;5.80;4.30;;;;;;;18.22;41.25;99874.13;5163713;27;38935;-75
2021/10/11 09:25:35;;;;;;;5.77;4.10;;;;;;;18.11;41.39;99884.81;5194556;27;41687;-77
2021/10/11 09:28:04;;;;;;;5.33;3.87;;;;;;;18.02;42.21;99875.69;5176185;27;42808;-77
2021/10/11 09:30:34;;;;;;;6.60;4.93;;;;;;;17.97;41.67;99880.53;5175684;27;42038;-77
2021/10/11 09:33:19;;;;;;;9.90;5.87;;;;;;;17.84;41.70;99871.72;5136527;27;38821;-76
2021/10/11 09:35:47;;;;;;;9.50;5.73;;;;;;;17.83;42.56;99875.34;5169114;27;41689;-79
2021/10/11 09:38:20;;;;;;;5.87;4.40;;;;;;;17.88;42.73;99857.13;5172649;27;43778;-84
2021/10/11 09:40:49;;;;;;;5.60;4.60;;;;;;;17.93;42.66;99849.56;5136586;27;41648;-77
2021/10/11 09:43:19;;;;;;;4.57;3.93;;;;;;;18.21;42.72;99843.78;5184054;27;39801;-76
2021/10/11 09:45:47;;;;;;;7.03;4.57;;;;;;;18.31;42.40;99855.47;5175336;27;41820;-78
2021/10/11 09:48:15;;;;;;;5.67;4.17;;;;;;;18.22;42.30;99852.66;5193917;27;43675;-78
2021/10/11 09:50:44;;;;;;;6.63;5.17;;;;;;;18.16;42.20;99845.97;5173032;27;42594;-76
2021/10/11 09:53:14;;;;;;;6.83;4.20;;;;;;;18.18;42.70;99861.91;5151505;27;39962;-75
2021/10/11 09:55:44;;;;;;;7.27;5.53;;;;;;;18.20;41.99;99855.47;5133627;27;41881;-76
2021/10/11 09:58:13;;;;;;;5.93;4.60;;;;;;;18.25;42.09;99845.25;5153341;27;42776;-77
2021/10/11 10:00:42;;;;;;;6.90;5.40;;;;;;;18.42;42.53;99846.59;5136014;27;41047;-76
2021/10/11 10:03:12;;;;;;;6.80;5.00;;;;;;;18.73;42.25;99836.97;5152978;27;40002;-75
2021/10/11 10:05:45;;;;;;;7.10;5.47;;;;;;;19.21;41.88;99828.59;5172226;27;42685;-78
2021/10/11 10:08:18;;;;;;;8.03;5.57;;;;;;;19.71;40.99;99838.69;5136083;27;42919;-76
2021/10/11 10:10:48;;;;;;;11.00;6.83;;;;;;;20.40;41.10;99836.28;5153150;27;43325;-75
2021/10/11 10:13:18;;;;;;;9.57;6.30;;;;;;;21.37;38.85;99852.81;5170571;27;40773;-77
2021/10/11 10:15:47;;;;;;;9.43;5.73;;;;;;;21.52;38.55;99851.38;5135013;27;40644;-76
2021/10/11 10:18:16;;;;;;;7.90;6.03;;;;;;;21.29;38.59;99836.47;5152153;27;42072;-76
2021/10/11 10:20:53;;;;;;;7.07;5.90;;;;;;;21.20;39.76;99845.38;5151438;27;43190;-77
2021/10/11 10:23:28;;;;;;;8.33;5.90;;;;;;;21.15;40.16;99843.91;5135020;27;41590;-76
2021/10/11 10:25:57;;;;;;;8.80;6.50;;;;;;;21.10;39.73;99848.88;5171704;27;42182;-75
2021/10/11 10:28:26;;;;;;;9.30;6.73;;;;;;;21.10;40.29;99835.41;5152977;27;42571;-76
2021/10/11 10:30:59;;;;;;;9.07;6.20;;;;;;;21.06;40.43;99836.69;5134833;27;42581;-77
2021/10/11 10:33:38;;;;;;;8.87;6.03;;;;;;;20.91;40.49;99829.97;5131163;27;38943;-75
2021/10/11 10:36:18;;;;;;;8.90;5.83;;;;;;;20.83;41.43;99821.75;5136018;27;41917;-77
2021/10/11 10:39:01;;;;;;;11.60;6.97;;;;;;;20.66;40.86;99819.69;5152336;27;43852;-76
2021/10/11 10:41:29;;;;;;;9.23;5.97;;;;;;;20.42;41.91;99812.81;5134366;27;41950;-75
2021/10/11 10:43:58;;;;;;;8.73;6.73;;;;;;;20.16;42.15;99807.97;5153234;27;39826;-76
2021/10/11 10:46:25;;;;;;;8.53;5.70;;;;;;;19.99;42.63;99804.06;5169700;27;42645;-76
2021/10/11 10:48:55;;;;;;;12.00;7.43;;;;;;;19.81;42.68;99805.63;5152316;27;42454;-77
2021/10/11 10:51:23;;;;;;;10.77;6.60;;;;;;;19.45;42.81;99782.72;5169023;27;42891;-77
2021/10/11 10:53:55;;;;;;;7.93;5.90;;;;;;;19.21;42.88;99794.53;5133991;27;39230;-77
2021/10/11 10:56:27;;;;;;;10.87;6.90;;;;;;;19.10;43.75;99796.41;5170926;27;41835;-77
2021/10/11 10:59:10;;;;;;;11.83;6.80;;;;;;;18.95;44.68;99787.78;5152532;27;42529;-77
2021/10/11 11:01:38;;;;;;;9.13;5.87;;;;;;;18.81;45.03;99794.28;5152103;27;42252;-77
2021/10/11 11:04:12;;;;;;;7.60;5.60;;;;;;;18.60;45.36;99782.59;5134525;27;40063;-76
2021/10/11 11:06:39;;;;;;;7.50;5.57;;;;;;;18.38;45.63;99774.53;5170898;27;42503;-76
2021/10/11 11:09:07;;;;;;;7.73;5.37;;;;;;;18.24;45.84;99784.53;5170832;27;42781;-76
2021/10/11 11:11:36;;;;;;;7.70;5.60;;;;;;;18.15;46.48;99774.56;5151696;27;40777;-75
2021/10/11 11:14:04;;;;;;;10.23;7.10;;;;;;;18.06;46.88;99775.25;5134938;27;38940;-77
2021/10/11 11:16:32;;;;;;;8.17;5.93;;;;;;;18.00;47.18;99775.75;5170382;27;41704;-76
2021/10/11 11:19:00;;;;;;;8.73;6.27;;;;;;;17.90;47.05;99780.13;5153364;27;42640;-80
2021/10/11 11:21:28;;;;;;;10.00;6.53;;;;;;;17.77;48.05;99779.38;5151982;27;42024;-77
2021/10/11 11:23:56;;;;;;;10.40;6.63;;;;;;;17.58;48.07;99767.34;5135021;27;39113;-76
2021/10/11 11:26:24;;;;;;;13.40;8.07;;;;;;;17.51;47.80;99779.53;5170636;27;43058;-78
2021/10/11 11:28:55;;;;;;;11.27;6.97;;;;;;;17.35;48.23;99773.63;5170225;27;42623;-76
2021/10/11 11:31:23;;;;;;;11.13;6.60;;;;;;;17.20;48.79;99775.63;5170069;27;42936;-75
2021/10/11 11:33:52;;;;;;;10.03;6.37;;;;;;;17.11;49.20;99778.13;5152001;27;39410;-76
2021/10/11 11:36:20;;;;;;;9.53;6.13;;;;;;;17.03;49.35;99772.50;5169293;27;42501;-77
2021/10/11 11:38:47;;;;;;;8.93;6.03;;;;;;;16.98;49.66;99764.81;5170178;27;42787;-75
2021/10/11 11:41:15;;;;;;;12.53;7.67;;;;;;;16.98;49.57;99780.00;5169857;27;43184;-76
2021/10/11 11:43:43;;;;;;;11.63;6.90;;;;;;;16.96;49.56;99771.25;5151852;27;39521;-78
2021/10/11 11:46:13;;;;;;;10.37;6.93;;;;;;;16.92;50.33;99759.09;5134365;27;41792;-80
2021/10/11 11:48:43;;;;;;;12.90;6.77;;;;;;;16.85;50.46;99767.53;5133444;27;41723;-76
2021/10/11 11:51:13;;;;;;;9.50;5.83;;;;;;;16.84;50.83;99755.13;5169268;27;42420;-77
2021/10/11 11:53:42;;;;;;;10.23;5.97;;;;;;;16.86;50.28;99755.88;5149582;27;39734;-75
2021/10/11 11:56:11;;;;;;;12.47;7.60;;;;;;;16.88;50.14;99748.59;5150451;27;41699;-74
2021/10/11 11:58:41;;;;;;;10.30;6.93;;;;;;;16.91;50.37;99749.34;5156122;27;42988;-76
2021/10/11 12:01:13;;;;;;;11.60;7.33;;;;;;;16.94;50.56;99747.28;5190938;27;41891;-78
2021/10/11 12:03:46;;;;;;;10.43;6.73;;;;;;;16.94;50.61;99741.09;5172491;27;39757;-76
2021/10/11 12:06:14;;;;;;;11.10;5.83;;;;;;;16.80;50.37;99729.59;5166984;27;41796;-76
2021/10/11 12:08:43;;;;;;;10.00;4.90;;;;;;;16.87;50.64;99738.84;5152861;27;42565;-76
2021/10/11 12:11:11;;;;;;;7.40;5.13;;;;;;;16.81;51.17;99725.91;5116029;27;42145;-77
2021/10/11 12:13:40;;;;;;;8.23;5.70;;;;;;;16.88;51.44;99732.53;5134068;27;40797;-75
2021/10/11 12:16:11;;;;;;;6.70;4.80;;;;;;;16.84;51.30;99736.41;5124051;27;40941;-76
2021/10/11 12:18:42;;;;;;;7.83;4.73;;;;;;;16.82;51.37;99737.47;5137445;27;43090;-75
2021/10/11 12:21:21;;;;;;;10.93;6.53;;;;;;;16.73;51.35;99735.50;5152726;27;41471;-77
2021/10/11 12:23:49;;;;;;;9.47;5.80;;;;;;;16.60;51.72;99742.69;5115398;27;38765;-77
2021/10/11 12:26:17;;;;;;;11.40;5.93;;;;;;;16.46;52.15;99735.66;5113516;27;42634;-76
2021/10/11 12:28:52;;;;;;;10.37;6.07;;;;;;;16.34;52.20;99731.19;5139667;27;42998;-77
2021/10/11 12:31:22;;;;;;;12.00;6.70;;;;;;;16.26;52.44;99733.56;5172187;27;42542;-76
2021/10/11 12:33:52;;;;;;;10.47;6.80;;;;;;;16.17;52.64;99735.97;5137119;27;40117;-77
2021/10/11 12:36:26;;;;;;;10.47;7.03;;;;;;;16.01;54.34;99729.13;5132984;27;41120;-75
2021/10/11 12:38:54;;;;;;;10.77;7.10;;;;;;;15.79;55.86;99736.00;5132751;27;43698;-77
2021/10/11 12:41:22;;;;;;;8.70;5.43;;;;;;;15.62;56.02;99717.59;5170331;27;42951;-75
2021/10/11 12:43:55;;;;;;;9.97;6.50;;;;;;;15.62;56.34;99732.78;5137291;27;38996;-81
2021/10/11 12:46:22;;;;;;;11.87;6.97;;;;;;;15.52;56.61;99735.19;5134095;27;40550;-77
2021/10/11 12:48:54;;;;;;;9.93;6.30;;;;;;;15.38;57.59;99730.81;5132576;27;43613;-76
2021/10/11 12:51:26;;;;;;;10.47;6.07;;;;;;;15.23;57.89;99734.50;5151350;27;42248;-78
2021/10/11 12:54:01;;;;;;;8.93;5.90;;;;;;;15.15;59.21;99722.66;5132586;27;40100;-77
2021/10/11 12:56:29;;;;;;;10.90;6.70;;;;;;;15.07;59.17;99726.69;5144516;27;41829;-77
2021/10/11 12:58:58;;;;;;;9.87;6.67;;;;;;;15.01;59.01;99732.44;5136319;27;42034;-76
2021/10/11 13:01:26;;;;;;;9.27;6.50;;;;;;;14.97;60.26;99722.06;5144975;27;42898;-76
2021/10/11 13:03:55;;;;;;;11.07;6.50;;;;;;;14.94;59.88;99715.13;5132220;27;39936;-77
2021/10/11 13:06:23;;;;;;;13.80;8.03;;;;;;;14.97;60.13;99716.72;5149968;27;42740;-76
2021/10/11 13:08:52;;;;;;;14.70;8.17;;;;;;;14.93;60.35;99720.56;5115514;27;42219;-76
2021/10/11 13:11:20;;;;;;;12.17;7.13;;;;;;;14.83;60.85;99727.47;5131561;27;43130;-75
2021/10/11 13:13:48;;;;;;;13.03;6.87;;;;;;;14.70;61.25;99722.94;5132929;27;40288;-75
2021/10/11 13:16:15;;;;;;;8.73;5.80;;;;;;;14.65;61.23;99727.72;5133739;27;41924;-76
2021/10/11 13:18:44;;;;;;;10.40;6.87;;;;;;;14.61;62.39;99718.19;5150839;27;42861;-74
2021/10/11 13:21:13;;;;;;;15.57;7.87;;;;;;;14.55;61.98;99713.28;5119291;27;41765;-75
2021/10/11 13:23:42;;;;;;;13.70;7.97;;;;;;;14.48;61.87;99711.94;5150186;27;40249;-75
2021/10/11 13:26:11;;;;;;;12.47;6.73;;;;;;;14.60;62.37;99719.16;5140202;27;42475;-76
2021/10/11 13:28:40;;;;;;;12.03;7.33;;;;;;;14.62;61.81;99714.56;5149704;27;43541;-74
2021/10/11 13:34:24;;;;;;;16.30;7.60;;;;;;;14.68;62.15;99718.66;5137823;27;39197;-76
2021/10/11 14:29:51;;;;;;;13.63;6.90;;;;;;;14.63;61.03;99724.28;5155019;27;39932;-75
2021/10/11 14:32:44;;;;;;;13.93;6.50;;;;;;;14.63;61.43;99718.97;5148842;27;42451;-75
2021/10/11 15:58:22;;;;;;;10.10;6.67;;;;;;;14.28;62.91;99683.03;5113592;27;38983;-82
2021/10/11 16:01:00;;;;;;;10.47;5.53;;;;;;;14.24;63.19;99676.19;5131015;27;41744;-85
2021/10/11 16:03:43;;;;;;;12.50;7.77;;;;;;;14.21;63.26;99687.06;5131757;27;42544;-74
2021/10/11 16:06:12;;;;;;;6.73;5.27;;;;;;;14.16;63.65;99689.16;5134240;27;41175;-76
2021/10/11 16:08:40;;;;;;;10.93;6.03;;;;;;;14.08;63.83;99688.81;5154861;27;38581;-74
2021/10/11 16:11:07;;;;;;;18.13;7.10;;;;;;;13.93;63.85;99683.50;5172914;27;41731;-77
2021/10/11 16:13:35;;;;;;;8.30;5.63;;;;;;;13.85;63.88;99691.09;5138257;27;42019;-74
2021/10/11 16:16:03;;;;;;;13.13;7.10;;;;;;;13.72;64.36;99690.16;5137760;27;40845;-76
2021/10/11 16:18:33;;;;;;;10.07;5.90;;;;;;;13.58;65.03;99696.34;5136335;27;40918;-76
2021/10/11 16:21:03;;;;;;;10.70;6.20;;;;;;;13.44;65.24;99684.81;5138148;27;40299;-75
2021/10/11 16:23:33;;;;;;;8.87;5.87;;;;;;;13.33;64.99;99689.94;5172781;27;42831;-76
2021/10/11 16:26:01;;;;;;;6.93;4.70;;;;;;;13.18;65.03;99684.59;5130000;27;40796;-77
2021/10/11 16:28:29;;;;;;;9.43;5.07;;;;;;;13.07;65.42;99691.47;5151322;27;40591;-77
2021/10/11 16:30:56;;;;;;;12.77;6.80;;;;;;;12.92;65.13;99683.44;5117376;27;41860;-76
2021/10/11 16:33:24;;;;;;;8.67;5.40;;;;;;;12.82;65.43;99689.41;5132477;27;42092;-77
2021/10/11 16:35:52;;;;;;;6.37;4.80;;;;;;;12.65;65.60;99689.50;5134094;27;42852;-77
2021/10/11 16:38:19;;;;;;;9.73;6.50;;;;;;;12.56;65.66;99697.06;5116687;27;38899;-77
2021/10/11 16:40:49;;;;;;;7.77;4.83;;;;;;;12.43;66.07;99685.44;5117810;27;40474;-77
2021/10/11 16:43:17;;;;;;;7.87;5.50;;;;;;;12.27;66.09;99679.25;5134149;27;42769;-76
2021/10/11 16:45:44;;;;;;;8.00;4.93;;;;;;;12.26;66.79;99688.16;5134207;27;42651;-76
2021/10/11 16:48:12;;;;;;;9.30;5.17;;;;;;;12.13;66.56;99687.13;5116034;27;41169;-78
2021/10/11 16:50:40;;;;;;;10.80;6.07;;;;;;;12.09;66.30;99691.78;5116130;27;42190;-76
2021/10/11 16:53:07;;;;;;;11.27;5.93;;;;;;;11.94;66.32;99675.84;5115252;27;43496;-78
2021/10/11 16:55:35;;;;;;;7.83;4.53;;;;;;;11.94;66.57;99697.06;5134440;27;42352;-77
2021/10/11 16:58:05;;;;;;;11.83;6.10;;;;;;;11.85;66.90;99694.00;5134154;27;40357;-77
2021/10/11 17:00:32;;;;;;;8.90;4.73;;;;;;;11.72;66.89;99692.91;5134069;27;40822;-79
2021/10/11 17:03:00;;;;;;;7.07;4.47;;;;;;;11.71;67.06;99696.50;5116853;27;42562;-78
2021/10/11 17:05:27;;;;;;;11.67;6.33;;;;;;;11.64;68.84;99694.22;5133987;27;42158;-78
2021/10/11 17:07:58;;;;;;;9.07;5.07;;;;;;;11.58;68.94;99697.22;5111746;27;40510;-78
2021/10/11 17:10:29;;;;;;;22.33;11.80;;;;;;;11.53;69.17;99703.63;5114061;27;41495;-78
2021/10/11 17:12:57;;;;;;;13.30;8.23;;;;;;;11.49;69.48;99706.53;5080448;27;42973;-78
2021/10/11 17:15:26;;;;;;;10.37;5.97;;;;;;;11.46;69.73;99707.56;5133517;27;42149;-76
2021/10/11 17:17:54;;;;;;;16.93;6.87;;;;;;;11.42;69.89;99711.28;5115930;27;40226;-76
2021/10/11 17:20:22;;;;;;;8.77;5.60;;;;;;;11.39;70.13;99710.59;5152208;27;43473;-76
2021/10/11 17:22:49;;;;;;;11.33;6.83;;;;;;;11.37;69.97;99715.13;5126099;27;42317;-76
2021/10/11 17:25:19;;;;;;;8.83;4.80;;;;;;;11.33;70.04;99716.22;5154043;27;41574;-77
2021/10/11 17:27:47;;;;;;;11.80;6.47;;;;;;;11.28;69.78;99711.16;5154629;27;39340;-76
2021/10/11 17:30:15;;;;;;;9.90;5.00;;;;;;;11.23;69.46;99720.28;5153735;27;40472;-78
2021/10/11 17:32:45;;;;;;;6.57;4.10;;;;;;;11.16;69.25;99720.59;5134582;27;43243;-78
2021/10/11 17:35:14;;;;;;;9.77;5.17;;;;;;;11.11;69.30;99727.94;5152024;27;42999;-78
2021/10/11 17:37:43;;;;;;;10.67;6.30;;;;;;;11.02;69.51;99720.44;5151970;27;39911;-77
2021/10/11 17:40:11;;;;;;;9.63;6.13;;;;;;;10.99;69.37;99723.25;5115393;27;40722;-78
2021/10/11 17:42:39;;;;;;;10.57;4.90;;;;;;;10.93;70.11;99717.38;5133037;27;42638;-78
2021/10/11 17:45:08;;;;;;;6.37;4.27;;;;;;;10.90;70.36;99713.09;5115870;27;42798;-76
2021/10/11 17:47:36;;;;;;;6.43;4.00;;;;;;;10.84;70.25;99716.06;5133389;27;38908;-75
2021/10/11 17:50:09;;;;;;;9.50;5.23;;;;;;;10.80;70.21;99722.44;5140049;27;41012;-75
2021/10/11 17:52:37;;;;;;;5.77;3.73;;;;;;;10.76;70.08;99720.88;5153497;27;43146;-75
2021/10/11 17:55:05;;;;;;;7.17;3.83;;;;;;;10.71;69.97;99723.75;5171709;27;42289;-77
2021/10/11 17:57:33;;;;;;;8.50;5.03;;;;;;;10.65;69.91;99724.06;5154000;27;40348;-77
2021/10/11 18:00:01;;;;;;;5.33;4.03;;;;;;;10.61;69.92;99721.66;5151603;27;42396;-76
2021/10/11 18:02:39;;;;;;;5.57;3.50;;;;;;;10.53;69.85;99719.34;5133108;27;42933;-76
2021/10/11 18:05:08;;;;;;;6.93;4.20;;;;;;;10.51;69.85;99725.69;5150775;27;41110;-76
2021/10/11 18:07:36;;;;;;;6.50;3.50;;;;;;;10.47;70.41;99732.03;5117804;27;39836;-77
2021/10/11 18:10:08;;;;;;;7.13;4.53;;;;;;;10.41;70.71;99728.75;5151913;27;41064;-77
2021/10/11 18:12:38;;;;;;;7.90;4.27;;;;;;;10.36;71.35;99717.53;5116139;27;41795;-76
2021/10/11 18:15:08;;;;;;;5.50;3.93;;;;;;;10.33;71.01;99717.69;5132368;27;42728;-78
2021/10/11 18:17:36;;;;;;;7.50;4.03;;;;;;;10.28;71.42;99719.66;5114547;27;40030;-77
2021/10/11 18:20:06;;;;;;;6.67;4.67;;;;;;;10.27;71.12;99723.25;5123036;27;40623;-77
2021/10/11 18:22:35;;;;;;;8.87;5.00;;;;;;;10.26;71.42;99726.00;5152755;27;43471;-76
2021/10/11 18:25:04;;;;;;;7.17;3.83;;;;;;;10.24;71.40;99723.41;5097891;27;41439;-76
2021/10/11 18:27:32;;;;;;;9.40;4.40;;;;;;;10.22;72.36;99714.69;5116553;27;39005;-75